createdAt,value
2017-09-08T00:00:30.214Z,14.85
2017-09-08T00:01:10.793Z,14.92
2017-09-08T00:01:51.354Z,14.91
2017-09-08T00:02:31.910Z,14.85
2017-09-08T00:03:12.476Z,14.91
2017-09-08T00:03:53.031Z,14.84
2017-09-08T00:04:33.594Z,14.85
2017-09-08T00:05:14.166Z,14.86
2017-09-08T00:05:54.737Z,14.88
2017-09-08T00:06:35.301Z,14.85
2017-09-08T00:07:15.881Z,14.85
2017-09-08T00:07:56.466Z,14.84
2017-09-08T00:08:37.054Z,14.86
2017-09-08T00:09:17.617Z,14.84
2017-09-08T00:09:58.180Z,14.81
2017-09-08T00:10:38.740Z,14.84
2017-09-08T00:11:19.320Z,14.82
2017-09-08T00:11:59.879Z,14.81
2017-09-08T00:12:40.440Z,14.79
2017-09-08T00:13:21.001Z,14.78
2017-09-08T00:14:01.596Z,14.81
2017-09-08T00:14:42.166Z,14.77
2017-09-08T00:15:22.738Z,14.86
2017-09-08T00:16:03.299Z,14.81
2017-09-08T00:16:43.858Z,14.84
2017-09-08T00:17:24.441Z,14.81
2017-09-08T00:18:05.003Z,14.79
2017-09-08T00:18:45.579Z,14.73
2017-09-08T00:19:26.144Z,14.81
2017-09-08T00:20:06.710Z,14.82
2017-09-08T00:20:47.290Z,14.73
2017-09-08T00:21:27.865Z,14.81
2017-09-08T00:22:08.443Z,14.69
2017-09-08T00:22:51.506Z,14.65
2017-09-08T00:23:32.075Z,14.7
2017-09-08T00:24:12.658Z,14.78
2017-09-08T00:24:53.212Z,14.69
2017-09-08T00:25:33.780Z,14.7
2017-09-08T00:26:14.339Z,14.66
2017-09-08T00:26:54.908Z,14.7
2017-09-08T00:27:35.468Z,14.7
2017-09-08T00:28:16.034Z,14.68
2017-09-08T00:28:56.598Z,14.69
2017-09-08T00:29:37.164Z,14.69
2017-09-08T00:30:17.746Z,14.69
2017-09-08T00:30:58.322Z,14.7
2017-09-08T00:31:38.881Z,14.68
2017-09-08T00:32:19.468Z,14.72
2017-09-08T00:33:00.049Z,14.7
2017-09-08T00:33:40.620Z,14.63
2017-09-08T00:34:21.189Z,14.53
2017-09-08T00:35:01.766Z,14.6
2017-09-08T00:35:42.387Z,14.6
2017-09-08T00:36:22.966Z,14.55
2017-09-08T00:37:03.563Z,14.59
2017-09-08T00:37:44.142Z,14.6
2017-09-08T00:38:24.724Z,14.62
2017-09-08T00:39:05.318Z,14.51
2017-09-08T00:39:45.897Z,14.63
2017-09-08T00:40:26.475Z,14.54
2017-09-08T00:41:07.044Z,14.55
2017-09-08T00:41:47.599Z,14.48
2017-09-08T00:42:28.178Z,14.63
2017-09-08T00:43:08.732Z,14.66
2017-09-08T00:43:49.305Z,14.5
2017-09-08T00:44:29.874Z,14.55
2017-09-08T00:45:10.441Z,14.55
2017-09-08T00:45:51.007Z,14.54
2017-09-08T00:46:31.567Z,14.54
2017-09-08T00:47:12.155Z,14.55
2017-09-08T00:47:52.722Z,14.5
2017-09-08T00:48:33.284Z,14.45
2017-09-08T00:49:13.841Z,14.55
2017-09-08T00:49:54.429Z,14.58
2017-09-08T00:50:35.009Z,14.5
2017-09-08T00:51:15.598Z,14.58
2017-09-08T00:51:56.201Z,14.5
2017-09-08T00:52:36.783Z,14.5
2017-09-08T00:53:17.378Z,14.5
2017-09-08T00:53:57.942Z,14.5
2017-09-08T00:54:38.504Z,14.53
2017-09-08T00:55:19.062Z,14.41
2017-09-08T00:55:59.621Z,14.47
2017-09-08T00:56:40.200Z,14.51
2017-09-08T00:57:20.754Z,14.48
2017-09-08T00:58:01.356Z,14.45
2017-09-08T00:58:41.926Z,14.45
2017-09-08T00:59:22.543Z,14.4
2017-09-08T01:00:03.108Z,14.37
2017-09-08T01:00:43.675Z,14.41
2017-09-08T01:01:24.277Z,14.33
2017-09-08T01:02:04.851Z,14.41
2017-09-08T01:02:45.421Z,14.41
2017-09-08T01:03:25.983Z,14.35
2017-09-08T01:04:06.565Z,14.36
2017-09-08T01:04:47.145Z,14.33
2017-09-08T01:05:27.705Z,14.36
2017-09-08T01:06:08.273Z,14.32
2017-09-08T01:06:48.839Z,14.37
2017-09-08T01:07:29.407Z,14.41
2017-09-08T01:08:10.016Z,14.33
2017-09-08T01:08:50.567Z,14.36
2017-09-08T01:09:31.139Z,14.36
2017-09-08T01:10:11.724Z,14.36
2017-09-08T01:10:52.273Z,14.41
2017-09-08T01:11:32.852Z,14.41
2017-09-08T01:12:13.424Z,14.43
2017-09-08T01:12:54.012Z,14.29
2017-09-08T01:13:34.578Z,14.28
2017-09-08T01:14:15.147Z,14.35
2017-09-08T01:14:55.716Z,14.3
2017-09-08T01:15:36.295Z,14.3
2017-09-08T01:16:16.898Z,14.29
2017-09-08T01:16:57.463Z,14.29
2017-09-08T01:17:38.042Z,14.36
2017-09-08T01:18:18.630Z,14.3
2017-09-08T01:18:59.188Z,14.3
2017-09-08T01:19:39.752Z,14.25
2017-09-08T01:20:20.318Z,14.18
2017-09-08T01:21:00.936Z,14.23
2017-09-08T01:21:41.499Z,14.29
2017-09-08T01:22:22.085Z,14.32
2017-09-08T01:23:02.664Z,14.25
2017-09-08T01:23:43.237Z,14.26
2017-09-08T01:24:23.854Z,14.28
2017-09-08T01:25:04.421Z,14.26
2017-09-08T01:25:44.993Z,14.26
2017-09-08T01:26:25.606Z,14.26
2017-09-08T01:27:06.200Z,14.23
2017-09-08T01:27:46.789Z,14.23
2017-09-08T01:28:27.363Z,14.18
2017-09-08T01:29:07.925Z,14.26
2017-09-08T01:29:48.487Z,14.14
2017-09-08T01:30:29.051Z,14.08
2017-09-08T01:31:09.645Z,14.11
2017-09-08T01:31:50.211Z,14.08
2017-09-08T01:32:30.781Z,14.14
2017-09-08T01:33:11.357Z,14.08
2017-09-08T01:33:51.947Z,14.08
2017-09-08T01:34:32.502Z,14.12
2017-09-08T01:35:13.068Z,14.11
2017-09-08T01:35:53.624Z,14.1
2017-09-08T01:36:34.186Z,14.11
2017-09-08T01:37:14.756Z,14.04
2017-09-08T01:37:55.314Z,14.12
2017-09-08T01:38:35.926Z,14.08
2017-09-08T01:39:16.494Z,14.04
2017-09-08T01:39:57.065Z,14.05
2017-09-08T01:40:37.621Z,14.08
2017-09-08T01:41:18.190Z,14.04
2017-09-08T01:41:58.782Z,14.08
2017-09-08T01:42:39.337Z,14.03
2017-09-08T01:43:19.897Z,14.03
2017-09-08T01:44:00.470Z,14.05
2017-09-08T01:44:41.051Z,14.05
2017-09-08T01:45:21.618Z,14.05
2017-09-08T01:46:02.193Z,14.08
2017-09-08T01:46:42.776Z,14.05
2017-09-08T01:47:23.338Z,14.04
2017-09-08T01:48:03.907Z,14.05
2017-09-08T01:48:44.469Z,14.08
2017-09-08T01:49:25.058Z,14.03
2017-09-08T01:50:05.612Z,14.03
2017-09-08T01:50:46.181Z,14.07
2017-09-08T01:51:26.739Z,13.99
2017-09-08T01:52:07.322Z,14.05
2017-09-08T01:52:47.882Z,14.07
2017-09-08T01:53:28.479Z,14.05
2017-09-08T01:54:09.056Z,14.03
2017-09-08T01:54:49.635Z,14
2017-09-08T01:55:30.192Z,14.05
2017-09-08T01:56:10.749Z,14.03
2017-09-08T01:56:51.329Z,14
2017-09-08T01:57:31.904Z,14.03
2017-09-08T01:58:12.457Z,14.03
2017-09-08T01:58:53.045Z,14.04
2017-09-08T01:59:33.623Z,14.1
2017-09-08T02:00:14.188Z,13.99
2017-09-08T02:00:54.763Z,14.03
2017-09-08T02:01:35.333Z,13.99
2017-09-08T02:02:15.917Z,13.95
2017-09-08T02:02:56.478Z,14.03
2017-09-08T02:03:37.047Z,13.89
2017-09-08T02:04:17.613Z,13.96
2017-09-08T02:04:58.179Z,13.97
2017-09-08T02:05:38.745Z,13.89
2017-09-08T02:06:19.341Z,13.99
2017-09-08T02:06:59.907Z,14.03
2017-09-08T02:07:40.475Z,13.92
2017-09-08T02:08:21.080Z,13.95
2017-09-08T02:09:01.641Z,13.9
2017-09-08T02:09:42.207Z,13.87
2017-09-08T02:10:22.763Z,14
2017-09-08T02:11:03.362Z,13.92
2017-09-08T02:11:43.930Z,13.92
2017-09-08T02:12:24.518Z,13.92
2017-09-08T02:13:05.094Z,13.9
2017-09-08T02:13:45.648Z,13.92
2017-09-08T02:14:26.209Z,13.89
2017-09-08T02:15:06.775Z,13.86
2017-09-08T02:15:47.383Z,13.9
2017-09-08T02:16:27.965Z,13.89
2017-09-08T02:17:08.536Z,13.92
2017-09-08T02:17:49.125Z,13.86
2017-09-08T02:18:29.703Z,13.89
2017-09-08T02:19:10.271Z,13.9
2017-09-08T02:19:50.850Z,13.83
2017-09-08T02:20:31.450Z,13.86
2017-09-08T02:21:11.983Z,13.89
2017-09-08T02:21:52.562Z,13.87
2017-09-08T02:22:33.198Z,13.89
2017-09-08T02:23:13.776Z,13.86
2017-09-08T02:23:54.343Z,13.9
2017-09-08T02:24:34.909Z,13.81
2017-09-08T02:25:15.489Z,13.83
2017-09-08T02:25:56.081Z,13.86
2017-09-08T02:26:36.684Z,13.79
2017-09-08T02:27:17.245Z,13.85
2017-09-08T02:27:57.809Z,13.83
2017-09-08T02:28:38.370Z,13.86
2017-09-08T02:29:18.934Z,13.85
2017-09-08T02:29:59.508Z,13.86
2017-09-08T02:30:40.060Z,13.86
2017-09-08T02:31:20.633Z,13.86
2017-09-08T02:32:01.224Z,13.9
2017-09-08T02:32:41.828Z,13.89
2017-09-08T02:33:22.388Z,13.83
2017-09-08T02:34:02.951Z,13.83
2017-09-08T02:34:43.637Z,13.87
2017-09-08T02:35:24.214Z,13.9
2017-09-08T02:36:04.767Z,13.9
2017-09-08T02:36:45.341Z,13.86
2017-09-08T02:37:25.907Z,13.89
2017-09-08T02:38:06.486Z,13.89
2017-09-08T02:38:47.062Z,13.83
2017-09-08T02:39:27.619Z,13.81
2017-09-08T02:40:08.210Z,13.81
2017-09-08T02:40:48.791Z,13.75
2017-09-08T02:41:29.376Z,13.74
2017-09-08T02:42:09.944Z,13.79
2017-09-08T02:42:50.517Z,13.85
2017-09-08T02:43:31.099Z,13.78
2017-09-08T02:44:11.663Z,13.79
2017-09-08T02:44:52.228Z,13.79
2017-09-08T02:45:32.796Z,13.79
2017-09-08T02:46:13.365Z,13.79
2017-09-08T02:46:53.957Z,13.79
2017-09-08T02:47:34.509Z,13.75
2017-09-08T02:48:15.077Z,13.71
2017-09-08T02:48:55.628Z,13.74
2017-09-08T02:49:36.186Z,13.77
2017-09-08T02:50:16.749Z,13.68
2017-09-08T02:50:57.347Z,13.72
2017-09-08T02:51:37.924Z,13.72
2017-09-08T02:52:18.507Z,13.77
2017-09-08T02:52:59.096Z,13.74
2017-09-08T02:53:39.677Z,13.77
2017-09-08T02:54:20.313Z,13.71
2017-09-08T02:55:00.881Z,13.71
2017-09-08T02:55:41.457Z,13.68
2017-09-08T02:56:22.017Z,13.7
2017-09-08T02:57:02.591Z,13.59
2017-09-08T02:57:43.131Z,13.68
2017-09-08T02:58:23.729Z,13.6
2017-09-08T02:59:04.265Z,13.71
2017-09-08T02:59:44.835Z,13.68
2017-09-08T03:00:25.442Z,13.72
2017-09-08T03:01:06.023Z,13.74
2017-09-08T03:01:46.594Z,13.74
2017-09-08T03:02:27.211Z,13.71
2017-09-08T03:03:07.808Z,13.71
2017-09-08T03:03:48.355Z,13.71
2017-09-08T03:04:29.002Z,13.72
2017-09-08T03:05:09.688Z,13.74
2017-09-08T03:05:50.257Z,13.7
2017-09-08T03:06:30.852Z,13.74
2017-09-08T03:07:11.454Z,13.67
2017-09-08T03:07:52.034Z,13.63
2017-09-08T03:08:32.602Z,13.57
2017-09-08T03:09:13.174Z,13.67
2017-09-08T03:09:53.745Z,13.72
2017-09-08T03:10:34.309Z,13.62
2017-09-08T03:11:14.882Z,13.67
2017-09-08T03:11:55.442Z,13.6
2017-09-08T03:12:36.012Z,13.67
2017-09-08T03:13:16.578Z,13.62
2017-09-08T03:13:57.184Z,13.6
2017-09-08T03:14:37.767Z,13.6
2017-09-08T03:15:18.356Z,13.62
2017-09-08T03:15:58.912Z,13.59
2017-09-08T03:16:39.513Z,13.57
2017-09-08T03:17:20.070Z,13.67
2017-09-08T03:18:00.658Z,13.63
2017-09-08T03:18:41.228Z,13.6
2017-09-08T03:19:21.807Z,13.59
2017-09-08T03:20:02.367Z,13.6
2017-09-08T03:20:42.928Z,13.57
2017-09-08T03:21:23.490Z,13.63
2017-09-08T03:22:04.089Z,13.59
2017-09-08T03:22:44.652Z,13.63
2017-09-08T03:23:25.223Z,13.56
2017-09-08T03:24:05.853Z,13.57
2017-09-08T03:24:46.430Z,13.59
2017-09-08T03:25:27.026Z,13.6
2017-09-08T03:26:07.589Z,13.57
2017-09-08T03:26:48.152Z,13.57
2017-09-08T03:27:28.714Z,13.63
2017-09-08T03:28:09.269Z,13.59
2017-09-08T03:28:49.842Z,13.67
2017-09-08T03:29:30.432Z,13.62
2017-09-08T03:30:11.010Z,13.56
2017-09-08T03:30:51.587Z,13.67
2017-09-08T03:31:32.154Z,13.67
2017-09-08T03:32:12.767Z,13.65
2017-09-08T03:32:53.325Z,13.56
2017-09-08T03:33:33.909Z,13.62
2017-09-08T03:34:14.540Z,13.7
2017-09-08T03:34:55.081Z,13.68
2017-09-08T03:35:35.660Z,13.74
2017-09-08T03:36:16.253Z,13.72
2017-09-08T03:36:56.825Z,13.71
2017-09-08T03:37:37.390Z,13.71
2017-09-08T03:38:17.969Z,13.71
2017-09-08T03:38:58.546Z,13.72
2017-09-08T03:39:39.124Z,13.67
2017-09-08T03:40:19.690Z,13.71
2017-09-08T03:41:00.281Z,13.74
2017-09-08T03:41:40.880Z,13.72
2017-09-08T03:42:21.457Z,13.74
2017-09-08T03:43:02.038Z,13.83
2017-09-08T03:43:42.613Z,13.77
2017-09-08T03:44:23.185Z,13.75
2017-09-08T03:45:03.749Z,13.72
2017-09-08T03:45:44.315Z,13.77
2017-09-08T03:46:24.932Z,13.75
2017-09-08T03:47:05.485Z,13.79
2017-09-08T03:47:46.051Z,13.78
2017-09-08T03:48:26.659Z,13.77
2017-09-08T03:49:07.217Z,13.75
2017-09-08T03:49:47.788Z,13.75
2017-09-08T03:50:28.339Z,13.81
2017-09-08T03:51:08.903Z,13.78
2017-09-08T03:51:49.476Z,13.83
2017-09-08T03:52:30.057Z,13.77
2017-09-08T03:53:10.639Z,13.79
2017-09-08T03:53:51.210Z,13.77
2017-09-08T03:54:31.783Z,13.81
2017-09-08T03:55:12.352Z,13.75
2017-09-08T03:55:52.920Z,13.75
2017-09-08T03:56:33.504Z,13.79
2017-09-08T03:57:14.092Z,13.78
2017-09-08T03:57:54.669Z,13.79
2017-09-08T03:58:35.262Z,13.79
2017-09-08T03:59:15.841Z,13.77
2017-09-08T03:59:56.403Z,13.79
2017-09-08T04:00:37.041Z,13.79
2017-09-08T04:01:17.660Z,13.79
2017-09-08T04:01:58.226Z,13.87
2017-09-08T04:02:38.797Z,13.77
2017-09-08T04:03:19.378Z,13.77
2017-09-08T04:03:59.930Z,13.78
2017-09-08T04:04:40.512Z,13.79
2017-09-08T04:05:21.075Z,13.81
2017-09-08T04:06:01.661Z,13.83
2017-09-08T04:06:42.234Z,13.74
2017-09-08T04:07:22.820Z,13.81
2017-09-08T04:08:03.381Z,13.75
2017-09-08T04:08:43.994Z,13.81
2017-09-08T04:09:24.562Z,13.79
2017-09-08T04:10:05.155Z,13.79
2017-09-08T04:10:45.724Z,13.78
2017-09-08T04:11:26.293Z,13.74
2017-09-08T04:12:06.845Z,13.79
2017-09-08T04:12:47.444Z,13.79
2017-09-08T04:13:28.004Z,13.81
2017-09-08T04:14:08.560Z,13.77
2017-09-08T04:14:49.144Z,13.79
2017-09-08T04:15:29.725Z,13.77
2017-09-08T04:16:10.302Z,13.83
2017-09-08T04:16:50.871Z,13.79
2017-09-08T04:17:31.461Z,13.81
2017-09-08T04:18:12.021Z,13.77
2017-09-08T04:18:52.586Z,13.78
2017-09-08T04:19:33.152Z,13.77
2017-09-08T04:20:13.724Z,13.78
2017-09-08T04:20:54.290Z,13.81
2017-09-08T04:21:34.877Z,13.83
2017-09-08T04:22:15.442Z,13.92
2017-09-08T04:22:55.998Z,13.81
2017-09-08T04:23:36.555Z,13.79
2017-09-08T04:24:17.127Z,13.79
2017-09-08T04:24:57.744Z,13.81
2017-09-08T04:25:38.308Z,13.79
2017-09-08T04:26:18.892Z,13.86
2017-09-08T04:26:59.463Z,13.83
2017-09-08T04:27:40.061Z,13.78
2017-09-08T04:28:20.629Z,13.81
2017-09-08T04:29:01.203Z,13.78
2017-09-08T04:29:41.760Z,13.81
2017-09-08T04:30:22.352Z,13.79
2017-09-08T04:31:02.940Z,13.85
2017-09-08T04:31:43.508Z,13.81
2017-09-08T04:32:24.074Z,13.79
2017-09-08T04:33:04.665Z,13.86
2017-09-08T04:33:45.233Z,13.81
2017-09-08T04:34:25.795Z,13.87
2017-09-08T04:35:06.376Z,13.9
2017-09-08T04:35:46.972Z,13.86
2017-09-08T04:36:27.594Z,13.83
2017-09-08T04:37:08.162Z,13.87
2017-09-08T04:37:48.775Z,13.85
2017-09-08T04:38:29.338Z,13.78
2017-09-08T04:39:09.921Z,13.9
2017-09-08T04:39:50.508Z,13.95
2017-09-08T04:40:31.078Z,13.93
2017-09-08T04:41:11.671Z,13.86
2017-09-08T04:41:52.238Z,13.86
2017-09-08T04:42:32.850Z,13.81
2017-09-08T04:43:13.437Z,13.86
2017-09-08T04:43:54.014Z,13.79
2017-09-08T04:44:34.599Z,13.78
2017-09-08T04:45:15.158Z,13.78
2017-09-08T04:45:55.735Z,13.81
2017-09-08T04:46:36.316Z,13.86
2017-09-08T04:47:16.894Z,13.78
2017-09-08T04:47:57.509Z,13.89
2017-09-08T04:48:38.074Z,13.9
2017-09-08T04:49:18.649Z,13.83
2017-09-08T04:49:59.212Z,13.9
2017-09-08T04:50:39.786Z,13.9
2017-09-08T04:51:20.370Z,13.87
2017-09-08T04:52:00.959Z,13.92
2017-09-08T04:52:41.514Z,13.9
2017-09-08T04:53:22.115Z,13.93
2017-09-08T04:54:02.682Z,13.92
2017-09-08T04:54:43.240Z,13.92
2017-09-08T04:55:23.814Z,13.86
2017-09-08T04:56:04.378Z,13.87
2017-09-08T04:56:44.931Z,13.93
2017-09-08T04:57:25.498Z,13.85
2017-09-08T04:58:06.064Z,13.92
2017-09-08T04:58:46.665Z,13.93
2017-09-08T04:59:27.227Z,13.93
2017-09-08T05:00:07.789Z,13.87
2017-09-08T05:00:48.348Z,13.87
2017-09-08T05:01:28.915Z,13.93
2017-09-08T05:02:09.483Z,13.79
2017-09-08T05:02:50.059Z,13.81
2017-09-08T05:03:30.640Z,13.87
2017-09-08T05:04:11.217Z,13.79
2017-09-08T05:04:51.796Z,13.83
2017-09-08T05:05:32.390Z,13.77
2017-09-08T05:06:12.954Z,13.81
2017-09-08T05:06:53.521Z,13.81
2017-09-08T05:07:34.084Z,13.81
2017-09-08T05:08:14.641Z,13.83
2017-09-08T05:08:55.207Z,13.81
2017-09-08T05:09:35.778Z,13.79
2017-09-08T05:10:16.340Z,13.83
2017-09-08T05:10:56.904Z,13.86
2017-09-08T05:11:37.461Z,13.89
2017-09-08T05:12:18.049Z,13.86
2017-09-08T05:12:58.619Z,13.93
2017-09-08T05:13:39.177Z,13.89
2017-09-08T05:14:19.750Z,13.87
2017-09-08T05:15:00.325Z,13.89
2017-09-08T05:15:40.892Z,13.9
2017-09-08T05:16:21.447Z,13.87
2017-09-08T05:17:02.032Z,13.87
2017-09-08T05:17:42.612Z,13.92
2017-09-08T05:18:23.178Z,13.89
2017-09-08T05:19:03.733Z,13.95
2017-09-08T05:19:44.295Z,13.86
2017-09-08T05:20:24.886Z,13.93
2017-09-08T05:21:05.469Z,13.92
2017-09-08T05:21:46.033Z,13.9
2017-09-08T05:22:26.601Z,13.92
2017-09-08T05:23:07.174Z,13.86
2017-09-08T05:23:47.750Z,13.89
2017-09-08T05:24:28.331Z,13.92
2017-09-08T05:25:08.920Z,13.95
2017-09-08T05:25:49.488Z,13.86
2017-09-08T05:26:30.106Z,13.87
2017-09-08T05:27:10.643Z,13.87
2017-09-08T05:27:51.214Z,13.9
2017-09-08T05:28:31.795Z,13.9
2017-09-08T05:29:12.372Z,13.9
2017-09-08T05:29:52.944Z,13.87
2017-09-08T05:30:33.522Z,13.87
2017-09-08T05:31:14.085Z,13.86
2017-09-08T05:31:54.680Z,13.92
2017-09-08T05:32:35.246Z,13.92
2017-09-08T05:33:15.821Z,13.9
2017-09-08T05:33:56.387Z,13.89
2017-09-08T05:34:36.957Z,13.92
2017-09-08T05:35:17.519Z,13.9
2017-09-08T05:35:58.102Z,13.9
2017-09-08T05:36:38.675Z,13.9
2017-09-08T05:37:19.235Z,13.85
2017-09-08T05:37:59.806Z,13.87
2017-09-08T05:38:40.377Z,13.86
2017-09-08T05:39:21.037Z,13.86
2017-09-08T05:40:01.595Z,13.92
2017-09-08T05:40:42.165Z,13.92
2017-09-08T05:41:22.729Z,13.92
2017-09-08T05:42:03.288Z,13.87
2017-09-08T05:42:43.855Z,13.89
2017-09-08T05:43:24.478Z,13.97
2017-09-08T05:44:05.051Z,14.03
2017-09-08T05:44:45.627Z,14.05
2017-09-08T05:45:26.197Z,13.87
2017-09-08T05:46:06.778Z,14.03
2017-09-08T05:46:47.352Z,13.96
2017-09-08T05:47:27.926Z,13.95
2017-09-08T05:48:08.527Z,13.99
2017-09-08T05:48:49.102Z,14.03
2017-09-08T05:49:29.692Z,13.97
2017-09-08T05:50:10.241Z,14
2017-09-08T05:50:50.839Z,13.99
2017-09-08T05:51:31.429Z,13.95
2017-09-08T05:52:12.346Z,14.04
2017-09-08T05:52:52.910Z,14.04
2017-09-08T05:53:33.481Z,14.05
2017-09-08T05:54:14.047Z,13.97
2017-09-08T05:54:54.648Z,13.97
2017-09-08T05:55:35.198Z,14.03
2017-09-08T05:56:15.785Z,14.04
2017-09-08T05:56:56.335Z,13.99
2017-09-08T05:57:37.139Z,14.03
2017-09-08T05:58:17.708Z,14.04
2017-09-08T05:58:58.291Z,14.05
2017-09-08T05:59:38.865Z,14.07
2017-09-08T06:00:19.487Z,14.03
2017-09-08T06:01:00.142Z,13.99
2017-09-08T06:01:40.701Z,14.03
2017-09-08T06:02:21.451Z,14.04
2017-09-08T06:03:02.137Z,13.99
2017-09-08T06:03:43.334Z,14.04
2017-09-08T06:04:23.886Z,14.07
2017-09-08T06:05:04.514Z,14.07
2017-09-08T06:05:45.164Z,14.07
2017-09-08T06:06:25.790Z,14.03
2017-09-08T06:07:06.352Z,13.99
2017-09-08T06:07:46.927Z,13.96
2017-09-08T06:08:27.521Z,14.05
2017-09-08T06:09:08.158Z,13.96
2017-09-08T06:09:48.744Z,14.07
2017-09-08T06:10:29.492Z,13.93
2017-09-08T06:11:10.163Z,14.05
2017-09-08T06:11:50.740Z,13.99
2017-09-08T06:12:31.289Z,14.04
2017-09-08T06:13:11.864Z,14.04
2017-09-08T06:13:52.436Z,14.03
2017-09-08T06:14:32.992Z,14.05
2017-09-08T06:15:13.623Z,13.99
2017-09-08T06:15:54.189Z,13.99
2017-09-08T06:16:34.743Z,13.93
2017-09-08T06:17:15.374Z,14
2017-09-08T06:17:55.936Z,13.92
2017-09-08T06:18:36.511Z,13.96
2017-09-08T06:19:17.083Z,14.04
2017-09-08T06:19:57.701Z,13.99
2017-09-08T06:20:38.263Z,13.99
2017-09-08T06:21:18.844Z,14.11
2017-09-08T06:21:59.450Z,14.03
2017-09-08T06:22:40.073Z,14
2017-09-08T06:23:20.633Z,13.97
2017-09-08T06:24:01.273Z,14.05
2017-09-08T06:24:41.953Z,14
2017-09-08T06:25:22.525Z,13.96
2017-09-08T06:26:03.146Z,14.07
2017-09-08T06:26:43.748Z,14.03
2017-09-08T06:27:24.473Z,14.07
2017-09-08T06:28:06.239Z,14.03
2017-09-08T06:28:46.812Z,14.1
2017-09-08T06:29:27.417Z,14.03
2017-09-08T06:30:07.993Z,14
2017-09-08T06:30:48.588Z,14
2017-09-08T06:31:29.149Z,14.04
2017-09-08T06:32:09.959Z,14.07
2017-09-08T06:32:50.547Z,14.11
2017-09-08T06:33:31.264Z,14.14
2017-09-08T06:34:11.836Z,14.14
2017-09-08T06:34:52.467Z,14.12
2017-09-08T06:35:33.387Z,14.11
2017-09-08T06:36:13.949Z,14.17
2017-09-08T06:36:54.662Z,14.18
2017-09-08T06:37:35.240Z,14.15
2017-09-08T06:38:15.970Z,14.22
2017-09-08T06:38:56.525Z,14.25
2017-09-08T06:39:37.094Z,14.2
2017-09-08T06:40:17.700Z,14.25
2017-09-08T06:40:58.558Z,14.18
2017-09-08T06:41:39.115Z,14.29
2017-09-08T06:42:19.877Z,14.2
2017-09-08T06:43:00.454Z,14.23
2017-09-08T06:43:41.240Z,14.3
2017-09-08T06:44:21.871Z,14.26
2017-09-08T06:45:02.428Z,14.32
2017-09-08T06:45:42.983Z,14.25
2017-09-08T06:46:23.607Z,14.2
2017-09-08T06:47:04.144Z,14.28
2017-09-08T06:47:44.716Z,14.25
2017-09-08T06:48:25.297Z,14.29
2017-09-08T06:49:05.853Z,14.26
2017-09-08T06:49:46.431Z,14.33
2017-09-08T06:50:27.008Z,14.29
2017-09-08T06:51:07.691Z,14.26
2017-09-08T06:51:48.318Z,14.29
2017-09-08T06:52:28.880Z,14.29
2017-09-08T06:53:09.555Z,14.28
2017-09-08T06:53:50.239Z,14.22
2017-09-08T06:54:30.809Z,14.33
2017-09-08T06:55:11.375Z,14.32
2017-09-08T06:55:52.032Z,14.28
2017-09-08T06:56:32.562Z,14.25
2017-09-08T06:57:13.162Z,14.22
2017-09-08T06:57:53.715Z,14.32
2017-09-08T06:58:34.302Z,14.23
2017-09-08T06:59:14.881Z,14.26
2017-09-08T06:59:55.462Z,14.23
2017-09-08T07:00:36.026Z,14.22
2017-09-08T07:01:16.585Z,14.3
2017-09-08T07:01:57.183Z,14.29
2017-09-08T07:02:37.745Z,14.25
2017-09-08T07:03:18.315Z,14.36
2017-09-08T07:03:58.964Z,14.33
2017-09-08T07:04:39.470Z,14.29
2017-09-08T07:05:20.041Z,14.32
2017-09-08T07:06:00.602Z,14.32
2017-09-08T07:06:41.176Z,14.33
2017-09-08T07:07:21.845Z,14.43
2017-09-08T07:08:02.414Z,14.36
2017-09-08T07:08:42.978Z,14.44
2017-09-08T07:09:23.542Z,14.44
2017-09-08T07:10:04.123Z,14.45
2017-09-08T07:10:44.705Z,14.44
2017-09-08T07:11:25.272Z,14.45
2017-09-08T07:12:05.865Z,14.35
2017-09-08T07:12:46.440Z,14.47
2017-09-08T07:13:27.003Z,14.54
2017-09-08T07:14:07.559Z,14.53
2017-09-08T07:14:48.201Z,14.55
2017-09-08T07:15:28.993Z,14.55
2017-09-08T07:16:09.584Z,14.55
2017-09-08T07:16:50.163Z,14.53
2017-09-08T07:17:30.740Z,14.59
2017-09-08T07:18:11.309Z,14.5
2017-09-08T07:18:52.002Z,14.48
2017-09-08T07:19:32.577Z,14.5
2017-09-08T07:20:13.164Z,14.51
2017-09-08T07:20:53.745Z,14.5
2017-09-08T07:21:34.691Z,14.62
2017-09-08T07:22:15.265Z,14.58
2017-09-08T07:22:55.860Z,14.54
2017-09-08T07:23:36.473Z,14.6
2017-09-08T07:24:17.046Z,14.69
2017-09-08T07:24:57.641Z,14.7
2017-09-08T07:25:38.197Z,14.7
2017-09-08T07:26:18.779Z,14.66
2017-09-08T07:26:59.346Z,14.73
2017-09-08T07:27:39.921Z,14.73
2017-09-08T07:28:20.487Z,14.7
2017-09-08T07:29:01.057Z,14.72
2017-09-08T07:29:41.650Z,14.82
2017-09-08T07:30:22.216Z,14.78
2017-09-08T07:31:02.807Z,14.72
2017-09-08T07:31:43.364Z,14.86
2017-09-08T07:32:23.929Z,14.81
2017-09-08T07:33:04.502Z,14.78
2017-09-08T07:33:45.078Z,14.89
2017-09-08T07:34:25.647Z,14.82
2017-09-08T07:35:06.214Z,14.82
2017-09-08T07:35:46.873Z,14.88
2017-09-08T07:36:27.465Z,14.85
2017-09-08T07:37:08.070Z,14.86
2017-09-08T07:37:48.664Z,14.92
2017-09-08T07:38:29.266Z,14.88
2017-09-08T07:39:09.838Z,14.94
2017-09-08T07:39:50.413Z,14.96
2017-09-08T07:40:31.006Z,14.94
2017-09-08T07:41:11.625Z,15.03
2017-09-08T07:41:52.253Z,15.1
2017-09-08T07:42:32.820Z,15.14
2017-09-08T07:43:13.394Z,15.09
2017-09-08T07:43:53.991Z,15.1
2017-09-08T07:44:34.587Z,15.17
2017-09-08T07:45:15.162Z,15.14
2017-09-08T07:45:55.788Z,15.17
2017-09-08T07:46:36.391Z,15.21
2017-09-08T07:47:16.945Z,15.24
2017-09-08T07:47:57.512Z,15.31
2017-09-08T07:48:38.116Z,15.22
2017-09-08T07:49:18.688Z,15.29
2017-09-08T07:49:59.270Z,15.27
2017-09-08T07:50:39.835Z,15.29
2017-09-08T07:51:20.405Z,15.25
2017-09-08T07:52:01.016Z,15.28
2017-09-08T07:52:41.558Z,15.24
2017-09-08T07:53:22.109Z,15.31
2017-09-08T07:54:02.676Z,15.28
2017-09-08T07:54:43.257Z,15.27
2017-09-08T07:55:23.834Z,15.36
2017-09-08T07:56:04.401Z,15.28
2017-09-08T07:56:45.005Z,15.25
2017-09-08T07:57:25.569Z,15.36
2017-09-08T07:58:06.152Z,15.29
2017-09-08T07:58:46.725Z,15.29
2017-09-08T07:59:27.327Z,15.36
2017-09-08T08:00:07.863Z,15.44
2017-09-08T08:00:48.452Z,15.39
2017-09-08T08:01:29.042Z,15.49
2017-09-08T08:02:09.622Z,15.36
2017-09-08T08:02:50.178Z,15.37
2017-09-08T08:03:30.755Z,15.43
2017-09-08T08:04:11.333Z,15.52
2017-09-08T08:04:51.897Z,15.49
2017-09-08T08:05:32.467Z,15.47
2017-09-08T08:06:13.094Z,15.51
2017-09-08T08:06:53.673Z,15.54
2017-09-08T08:07:34.239Z,15.47
2017-09-08T08:08:14.799Z,15.52
2017-09-08T08:08:55.389Z,15.47
2017-09-08T08:09:35.947Z,15.51
2017-09-08T08:10:16.511Z,15.52
2017-09-08T08:10:57.081Z,15.55
2017-09-08T08:11:37.691Z,15.54
2017-09-08T08:12:18.266Z,15.54
2017-09-08T08:12:58.839Z,15.54
2017-09-08T08:13:39.462Z,15.52
2017-09-08T08:14:20.007Z,15.55
2017-09-08T08:15:00.579Z,15.59
2017-09-08T08:15:41.185Z,15.59
2017-09-08T08:16:21.758Z,15.62
2017-09-08T08:17:02.322Z,15.59
2017-09-08T08:17:42.893Z,15.59
2017-09-08T08:18:23.478Z,15.61
2017-09-08T08:19:04.060Z,15.64
2017-09-08T08:19:44.635Z,15.72
2017-09-08T08:20:25.203Z,15.72
2017-09-08T08:21:05.778Z,15.75
2017-09-08T08:21:46.345Z,15.8
2017-09-08T08:22:26.906Z,15.8
2017-09-08T08:23:07.461Z,15.76
2017-09-08T08:23:48.029Z,15.73
2017-09-08T08:24:28.604Z,15.75
2017-09-08T08:25:09.172Z,15.79
2017-09-08T08:25:49.756Z,15.79
2017-09-08T08:26:30.342Z,15.8
2017-09-08T08:27:10.902Z,15.86
2017-09-08T08:27:51.462Z,15.82
2017-09-08T08:28:32.024Z,15.76
2017-09-08T08:29:12.588Z,15.83
2017-09-08T08:29:53.160Z,15.75
2017-09-08T08:30:33.727Z,15.73
2017-09-08T08:31:14.311Z,15.79
2017-09-08T08:31:54.865Z,15.84
2017-09-08T08:32:35.430Z,15.79
2017-09-08T08:33:15.993Z,15.73
2017-09-08T08:33:56.567Z,15.83
2017-09-08T08:34:37.147Z,15.79
2017-09-08T08:35:17.713Z,15.73
2017-09-08T08:35:58.272Z,15.72
2017-09-08T08:36:38.899Z,15.7
2017-09-08T08:37:19.465Z,15.73
2017-09-08T08:38:00.028Z,15.77
2017-09-08T08:38:40.588Z,15.8
2017-09-08T08:39:21.153Z,15.77
2017-09-08T08:40:01.723Z,15.72
2017-09-08T08:40:42.319Z,15.76
2017-09-08T08:41:22.890Z,15.76
2017-09-08T08:42:03.463Z,15.88
2017-09-08T08:42:44.025Z,15.8
2017-09-08T08:43:24.583Z,15.84
2017-09-08T08:44:05.148Z,15.8
2017-09-08T08:44:45.714Z,15.79
2017-09-08T08:45:26.285Z,15.84